Westernville, NY

12:34 AM EDT on August 25, 2016 (GMT -0400)
Kotary Road Floyd | | Change Station

Elev 1230 ft 43.27 °N, 75.32 °W | Updated 37 seconds ago

Clear
Clear
68.4 °F
Feels Like 68.4 °F
N
3.2
Wind Variable Wind from SSW

Today
High -- | Low -- °F
--% Chance of Precip.
Yesterday
High -- | Low -- °F
Precip. -- in
Pressure 30.07 in
Visibility 10.0 miles
Clouds Clear
Dew Point 60 °F
Humidity 74%
Rainfall 0.00 in
Snow Depth Not available.
6:18 AM 7:47 PM
Waning Gibbous, 50% visible
METAR KRME 250353Z AUTO 06005KT 10SM CLR 21/17 A3008 RMK AO2 SLP181 T02060167
Pressure 30.07 in
Visibility 10.0 miles
Clouds Clear
Dew Point 60 °F
Humidity 74%
Rainfall 0.00 in
Snow Depth Not available.
6:18 AM 7:47 PM
Waning Gibbous, 50% visible
METAR KRME 250353Z AUTO 06005KT 10SM CLR 21/17 A3008 RMK AO2 SLP181 T02060167

10-Day Weather Forecast

Almanac

Astronomy

Aug. 25, 2016 Rise Set
Actual Time
Civil Twilight
Nautical Twilight
Astronomical Twilight
Moon
Length of Visible Light
Length of Day
Tomorrow will be .
, % of the Moon is Illuminated

Today's Extremes

State Highs State Lows

Community

WunderPhotos

Upload Photos

1,934,796 photos uploaded!

WunderBlog® & News

Nearby

Air Quality

  Air Quality AQ Index Pollutant
Not available.

Snow Depth

Station Depth Elevation

Earthquake Activity

City Distance Mag. Time & Date
Minimum magnitude displayed is 2.5.

Coastal Water Temperatures

Place Temperature

Stations

Nearby Weather Stations

Station Location Temp. Windchill Dew Point Humidity Wind Precip. Elev Updated Type
                   

Watches & Warnings

There are currently no watches in effect.